Time,TemperatureF,DewpointF,PressureIn,WindDirection,WindDirectionDegrees,WindSpeedMPH,WindSpeedGustMPH,Humidity,HourlyPrecipIn,Conditions,Clouds,dailyrainin,SoftwareType,DateUTC
2013-01-05 00:03:00,26.9,4.1,30.25,ENE,78,0.0,0.0,37,0.00,CLR,,0.00,WeatherDisplay:10.37,2013-01-05 08:03:00,
2013-01-05 00:08:00,26.5,3.7,30.25,ENE,78,2.3,2.3,37,0.00,CLR,,0.00,WeatherDisplay:10.37,2013-01-05 08:08:00,
2013-01-05 00:13:00,26.2,4.0,30.26,ENE,78,2.3,2.3,38,0.00,CLR,,0.00,WeatherDisplay:10.37,2013-01-05 08:13:00,
2013-01-05 00:18:00,26.2,4.6,30.26,ENE,78,2.3,2.3,39,0.00,CLR,,0.00,WeatherDisplay:10.37,2013-01-05 08:18:00,
2013-01-05 00:23:00,26.2,4.0,30.25,ENE,78,1.1,0.0,38,0.00,CLR,,0.00,WeatherDisplay:10.37,2013-01-05 08:23:00,
2013-01-05 00:28:00,26.2,4.6,30.25,ENE,78,3.5,3.5,39,0.00,CLR,,0.00,WeatherDisplay:10.37,2013-01-05 08:28:00,
2013-01-05 00:33:00,26.3,4.1,30.25,ENE,78,0.0,0.0,38,0.00,CLR,,0.00,WeatherDisplay:10.37,2013-01-05 08:33:00,
2013-01-05 00:38:00,26.2,4.6,30.25,ENE,78,0.0,0.0,39,0.00,CLR,,0.00,WeatherDisplay:10.37,2013-01-05 08:38:00,
2013-01-05 00:43:00,26.0,4.4,30.25,ENE,78,0.0,0.0,39,0.00,CLR,,0.00,WeatherDisplay:10.37,2013-01-05 08:43:00,
2013-01-05 00:48:00,25.4,3.3,30.25,ENE,78,2.3,2.3,38,0.00,CLR,,0.00,WeatherDisplay:10.37,2013-01-05 08:48:00,
2013-01-05 00:53:00,24.4,2.4,30.26,ENE,78,2.3,2.3,38,0.00,CLR,,0.00,WeatherDisplay:10.37,2013-01-05 08:53:00,
2013-01-05 00:58:00,23.9,1.4,30.26,ENE,78,0.0,0.0,37,0.00,CLR,,0.00,WeatherDisplay:10.37,2013-01-05 08:58:00,
2013-01-05 01:03:00,23.4,1.5,30.25,ENE,78,0.0,0.0,38,0.00,CLR,,0.00,WeatherDisplay:10.37,2013-01-05 09:03:00,
2013-01-05 01:08:00,23.0,1.7,30.26,ENE,78,0.0,0.0,39,0.00,CLR,,0.00,WeatherDisplay:10.37,2013-01-05 09:08:00,
2013-01-05 01:13:00,22.8,1.5,30.26,ENE,78,0.0,0.0,39,0.00,CLR,,0.00,WeatherDisplay:10.37,2013-01-05 09:13:00,
2013-01-05 01:18:00,22.8,2.0,30.26,ENE,78,0.0,0.0,40,0.00,CLR,,0.00,WeatherDisplay:10.37,2013-01-05 09:18:00,
2013-01-05 01:23:00,22.9,2.1,30.26,ENE,78,0.0,0.0,40,0.00,CLR,,0.00,WeatherDisplay:10.37,2013-01-05 09:23:00,
2013-01-05 01:28:00,23.0,2.2,30.26,ENE,78,0.0,0.0,40,0.00,CLR,,0.00,WeatherDisplay:10.37,2013-01-05 09:28:00,
2013-01-05 01:33:00,22.8,2.0,30.26,ENE,78,0.0,0.0,40,0.00,CLR,,0.00,WeatherDisplay:10.37,2013-01-05 09:33:00,
2013-01-05 01:38:00,22.8,2.0,30.26,ENE,78,0.0,0.0,40,0.00,CLR,,0.00,WeatherDisplay:10.37,2013-01-05 09:38:00,
2013-01-05 01:43:00,23.0,2.8,30.26,ENE,78,0.0,0.0,41,0.00,CLR,,0.00,WeatherDisplay:10.37,2013-01-05 09:43:00,
2013-01-05 01:48:00,23.2,2.9,30.26,ENE,78,0.0,0.0,41,0.00,CLR,,0.00,WeatherDisplay:10.37,2013-01-05 09:48:00,
2013-01-05 01:53:00,23.3,3.0,30.26,ENE,78,0.0,0.0,41,0.00,CLR,,0.00,WeatherDisplay:10.37,2013-01-05 09:53:00,
2013-01-05 01:58:00,23.3,3.0,30.26,ENE,78,0.0,0.0,41,0.00,CLR,,0.00,WeatherDisplay:10.37,2013-01-05 09:58:00,
2013-01-05 02:03:00,23.2,2.9,30.26,ENE,78,0.0,0.0,41,0.00,CLR,,0.00,WeatherDisplay:10.37,2013-01-05 10:03:00,
2013-01-05 02:08:00,23.1,2.3,30.26,ENE,78,0.0,0.0,40,0.00,CLR,,0.00,WeatherDisplay:10.37,2013-01-05 10:08:00,
2013-01-05 02:13:00,22.9,2.7,30.26,ENE,78,0.0,0.0,41,0.00,CLR,,0.00,WeatherDisplay:10.37,2013-01-05 10:13:00,
2013-01-05 02:18:00,22.7,2.5,30.26,ENE,78,0.0,0.0,41,0.00,CLR,,0.00,WeatherDisplay:10.37,2013-01-05 10:18:00,
2013-01-05 02:23:00,22.5,2.3,30.26,ENE,78,0.0,0.0,41,0.00,CLR,,0.00,WeatherDisplay:10.37,2013-01-05 10:23:00,
2013-01-05 02:28:00,22.4,2.7,30.27,ENE,78,0.0,0.0,42,0.00,CLR,,0.00,WeatherDisplay:10.37,2013-01-05 10:28:00,
2013-01-05 02:33:00,22.2,2.6,30.27,ENE,78,0.0,0.0,42,0.00,CLR,,0.00,WeatherDisplay:10.37,2013-01-05 10:33:00,
2013-01-05 02:38:00,22.3,2.6,30.27,ENE,78,0.0,0.0,42,0.00,CLR,,0.00,WeatherDisplay:10.37,2013-01-05 10:38:00,
2013-01-05 02:43:00,22.5,3.3,30.26,ENE,78,0.0,0.0,43,0.00,CLR,,0.00,WeatherDisplay:10.37,2013-01-05 10:43:00,
2013-01-05 02:48:00,22.6,2.9,30.26,ENE,78,0.0,0.0,42,0.00,CLR,,0.00,WeatherDisplay:10.37,2013-01-05 10:48:00,
2013-01-05 02:53:00,22.5,3.3,30.26,ENE,78,0.0,0.0,43,0.00,CLR,,0.00,WeatherDisplay:10.37,2013-01-05 10:53:00,
2013-01-05 02:58:00,22.8,3.6,30.26,ENE,78,0.0,0.0,43,0.00,CLR,,0.00,WeatherDisplay:10.37,2013-01-05 10:58:00,
2013-01-05 03:03:00,23.0,3.3,30.26,ENE,78,0.0,0.0,42,0.00,CLR,,0.00,WeatherDisplay:10.37,2013-01-05 11:03:00,
2013-01-05 03:08:00,22.8,3.1,30.26,ENE,78,1.1,0.0,42,0.00,CLR,,0.00,WeatherDisplay:10.37,2013-01-05 11:08:00,
2013-01-05 03:13:00,22.4,2.2,30.27,ENE,78,0.0,0.0,41,0.00,CLR,,0.00,WeatherDisplay:10.37,2013-01-05 11:13:00,
2013-01-05 03:18:00,22.1,1.9,30.27,ENE,78,0.0,0.0,41,0.00,CLR,,0.00,WeatherDisplay:10.37,2013-01-05 11:18:00,
2013-01-05 03:23:00,22.0,2.4,30.26,ENE,78,0.0,0.0,42,0.00,CLR,,0.00,WeatherDisplay:10.37,2013-01-05 11:23:00,
2013-01-05 03:28:00,22.1,2.5,30.26,ENE,78,0.0,0.0,42,0.00,CLR,,0.00,WeatherDisplay:10.37,2013-01-05 11:28:00,
2013-01-05 03:33:00,22.5,3.3,30.26,ENE,78,2.0,2.0,43,0.00,CLR,,0.00,WeatherDisplay:10.37,2013-01-05 11:33:00,
2013-01-05 03:38:00,22.8,4.1,30.26,ENE,78,1.1,0.0,44,0.00,CLR,,0.00,WeatherDisplay:10.37,2013-01-05 11:38:00,
2013-01-05 03:43:00,23.0,4.3,30.26,ENE,78,0.0,0.0,44,0.00,CLR,,0.00,WeatherDisplay:10.37,2013-01-05 11:43:00,
2013-01-05 03:48:00,23.0,4.3,30.26,ENE,78,3.5,3.5,44,0.00,CLR,,0.00,WeatherDisplay:10.37,2013-01-05 11:48:00,
2013-01-05 03:53:00,23.5,4.8,30.26,ENE,78,1.1,1.1,44,0.00,CLR,,0.00,WeatherDisplay:10.37,2013-01-05 11:53:00,
2013-01-05 03:58:00,24.1,4.8,30.26,ENE,78,2.3,2.3,43,0.00,CLR,,0.00,WeatherDisplay:10.37,2013-01-05 11:58:00,
2013-01-05 04:03:00,24.1,4.8,30.26,ENE,78,0.0,0.0,43,0.00,CLR,,0.00,WeatherDisplay:10.37,2013-01-05 12:03:00,
2013-01-05 04:08:00,23.6,3.8,30.27,ENE,78,0.0,0.0,42,0.00,CLR,,0.00,WeatherDisplay:10.37,2013-01-05 12:08:00,
2013-01-05 04:13:00,22.5,2.3,30.27,ENE,78,0.0,0.0,41,0.00,CLR,,0.00,WeatherDisplay:10.37,2013-01-05 12:13:00,
2013-01-05 04:18:00,21.8,2.7,30.27,ENE,78,0.0,0.0,43,0.00,CLR,,0.00,WeatherDisplay:10.37,2013-01-05 12:18:00,
2013-01-05 04:23:00,21.7,3.1,30.27,ENE,78,0.0,0.0,44,0.00,CLR,,0.00,WeatherDisplay:10.37,2013-01-05 12:23:00,
2013-01-05 04:28:00,21.8,3.2,30.27,ENE,78,0.0,0.0,44,0.00,CLR,,0.00,WeatherDisplay:10.37,2013-01-05 12:28:00,
2013-01-05 04:34:00,21.8,3.2,30.27,ENE,78,0.0,0.0,44,0.00,CLR,,0.00,WeatherDisplay:10.37,2013-01-05 12:34:00,
2013-01-05 04:39:00,21.7,2.6,30.28,ENE,78,0.0,0.0,43,0.00,CLR,,0.00,WeatherDisplay:10.37,2013-01-05 12:39:00,
2013-01-05 04:44:00,21.6,3.0,30.28,ENE,78,0.0,0.0,44,0.00,CLR,,0.00,WeatherDisplay:10.37,2013-01-05 12:44:00,
2013-01-05 04:49:00,21.6,2.5,30.28,ENE,78,0.0,0.0,43,0.00,CLR,,0.00,WeatherDisplay:10.37,2013-01-05 12:49:00,
2013-01-05 04:54:00,21.4,2.8,30.29,ENE,78,0.0,0.0,44,0.00,CLR,,0.00,WeatherDisplay:10.37,2013-01-05 12:54:00,
2013-01-05 04:59:00,21.1,3.0,30.29,ENE,78,2.3,2.3,45,0.00,CLR,,0.00,WeatherDisplay:10.37,2013-01-05 12:59:00,
2013-01-05 05:04:00,20.6,1.6,30.31,ENE,78,1.1,1.1,43,0.00,CLR,,0.00,WeatherDisplay:10.37,2013-01-05 13:04:00,
2013-01-05 05:09:00,20.0,1.5,30.31,ENE,78,0.0,0.0,44,0.00,CLR,,0.00,WeatherDisplay:10.37,2013-01-05 13:09:00,
2013-01-05 05:14:00,19.8,2.3,30.31,ENE,78,0.0,0.0,46,0.00,CLR,,0.00,WeatherDisplay:10.37,2013-01-05 13:14:00,
2013-01-05 05:19:00,20.0,2.0,30.31,ENE,78,0.0,0.0,45,0.00,CLR,,0.00,WeatherDisplay:10.37,2013-01-05 13:19:00,
2013-01-05 05:24:00,20.3,2.3,30.31,ENE,78,0.0,0.0,45,0.00,CLR,,0.00,WeatherDisplay:10.37,2013-01-05 13:24:00,
2013-01-05 05:29:00,20.4,2.4,30.31,ENE,78,0.0,0.0,45,0.00,CLR,,0.00,WeatherDisplay:10.37,2013-01-05 13:29:00,
2013-01-05 05:34:00,20.6,2.6,30.31,ENE,78,0.0,0.0,45,0.00,CLR,,0.00,WeatherDisplay:10.37,2013-01-05 13:34:00,
2013-01-05 05:39:00,21.0,3.0,30.31,ENE,78,0.0,0.0,45,0.00,CLR,,0.00,WeatherDisplay:10.37,2013-01-05 13:39:00,
2013-01-05 05:44:00,21.3,2.7,30.31,ENE,78,2.3,2.3,44,0.00,CLR,,0.00,WeatherDisplay:10.37,2013-01-05 13:44:00,
2013-01-05 05:49:00,21.4,3.3,30.31,ENE,78,0.0,0.0,45,0.00,CLR,,0.00,WeatherDisplay:10.37,2013-01-05 13:49:00,
2013-01-05 05:54:00,21.6,3.5,30.31,ENE,78,0.0,0.0,45,0.00,CLR,,0.00,WeatherDisplay:10.37,2013-01-05 13:54:00,
2013-01-05 05:59:00,21.8,3.7,30.31,ENE,78,0.0,0.0,45,0.00,CLR,,0.00,WeatherDisplay:10.37,2013-01-05 13:59:00,
2013-01-05 06:04:00,21.7,3.6,30.32,ENE,78,0.0,0.0,45,0.00,CLR,,0.00,WeatherDisplay:10.37,2013-01-05 14:04:00,
2013-01-05 06:09:00,21.6,3.5,30.33,ENE,78,0.0,0.0,45,0.00,CLR,,0.00,WeatherDisplay:10.37,2013-01-05 14:09:00,
2013-01-05 06:14:00,21.4,3.3,30.33,ENE,78,0.0,0.0,45,0.00,CLR,,0.00,WeatherDisplay:10.37,2013-01-05 14:14:00,
2013-01-05 06:19:00,21.2,3.1,30.34,ENE,78,0.0,0.0,45,0.00,CLR,,0.00,WeatherDisplay:10.37,2013-01-05 14:19:00,
2013-01-05 06:24:00,20.9,2.9,30.34,ENE,78,0.0,0.0,45,0.00,CLR,,0.00,WeatherDisplay:10.37,2013-01-05 14:24:00,
2013-01-05 06:29:00,20.9,3.3,30.34,ENE,78,0.0,0.0,46,0.00,CLR,,0.00,WeatherDisplay:10.37,2013-01-05 14:29:00,
2013-01-05 06:34:00,21.1,3.5,30.34,ENE,78,0.0,0.0,46,0.00,CLR,,0.00,WeatherDisplay:10.37,2013-01-05 14:34:00,
2013-01-05 06:39:00,21.3,3.7,30.34,ENE,78,0.0,0.0,46,0.00,CLR,,0.00,WeatherDisplay:10.37,2013-01-05 14:39:00,
2013-01-05 06:44:00,21.1,3.5,30.34,ENE,78,0.0,0.0,46,0.00,CLR,,0.00,WeatherDisplay:10.37,2013-01-05 14:44:00,
2013-01-05 06:49:00,20.8,3.2,30.35,ENE,78,0.0,0.0,46,0.00,CLR,,0.00,WeatherDisplay:10.37,2013-01-05 14:49:00,
2013-01-05 06:54:00,19.8,1.4,30.35,ENE,78,0.0,0.0,44,0.00,CLR,,0.00,WeatherDisplay:10.37,2013-01-05 14:54:00,
2013-01-05 06:59:00,19.2,1.8,30.36,ENE,78,0.0,0.0,46,0.00,CLR,,0.00,WeatherDisplay:10.37,2013-01-05 14:59:00,
2013-01-05 07:04:00,18.9,2.0,30.36,ENE,78,0.0,0.0,47,0.00,CLR,,0.00,WeatherDisplay:10.37,2013-01-05 15:04:00,
2013-01-05 07:09:00,18.9,2.0,30.36,ENE,78,0.0,0.0,47,0.00,CLR,,0.00,WeatherDisplay:10.37,2013-01-05 15:09:00,
2013-01-05 07:14:00,19.1,2.6,30.36,ENE,78,0.0,0.0,48,0.00,CLR,,0.00,WeatherDisplay:10.37,2013-01-05 15:14:00,
2013-01-05 07:19:00,19.4,2.9,30.36,ENE,78,0.0,0.0,48,0.00,CLR,,0.00,WeatherDisplay:10.37,2013-01-05 15:19:00,
2013-01-05 07:24:00,19.8,3.2,30.36,ENE,78,0.0,0.0,48,0.00,CLR,,0.00,WeatherDisplay:10.37,2013-01-05 15:24:00,
2013-01-05 07:29:00,20.4,3.8,30.36,ENE,78,0.0,0.0,48,0.00,CLR,,0.00,WeatherDisplay:10.37,2013-01-05 15:29:00,
2013-01-05 07:34:00,21.0,3.9,30.36,ENE,78,0.0,0.0,47,0.00,CLR,,0.00,WeatherDisplay:10.37,2013-01-05 15:34:00,
2013-01-05 07:39:00,21.5,3.9,30.36,ENE,78,0.0,0.0,46,0.00,CLR,,0.00,WeatherDisplay:10.37,2013-01-05 15:39:00,
2013-01-05 07:44:00,21.6,3.5,30.36,ENE,78,0.0,0.0,45,0.00,CLR,,0.00,WeatherDisplay:10.37,2013-01-05 15:44:00,
2013-01-05 07:49:00,21.6,3.5,30.37,ENE,78,0.0,0.0,45,0.00,CLR,,0.00,WeatherDisplay:10.37,2013-01-05 15:49:00,
2013-01-05 07:54:00,21.6,3.5,30.37,ENE,78,0.0,0.0,45,0.00,CLR,,0.00,WeatherDisplay:10.37,2013-01-05 15:54:00,
2013-01-05 07:59:00,21.7,3.6,30.36,ENE,78,0.0,0.0,45,0.00,CLR,,0.00,WeatherDisplay:10.37,2013-01-05 15:59:00,
2013-01-05 08:04:00,22.1,4.0,30.38,ENE,78,0.0,0.0,45,0.00,CLR,,0.00,WeatherDisplay:10.37,2013-01-05 16:04:00,
2013-01-05 08:09:00,22.9,4.7,30.38,ENE,78,0.0,0.0,45,0.00,CLR,,0.00,WeatherDisplay:10.37,2013-01-05 16:09:00,
2013-01-05 08:14:00,23.8,5.5,30.37,ENE,78,0.0,0.0,45,0.00,CLR,,0.00,WeatherDisplay:10.37,2013-01-05 16:14:00,
2013-01-05 08:19:00,24.6,5.3,30.37,ENE,78,0.0,0.0,43,0.00,CLR,,0.00,WeatherDisplay:10.37,2013-01-05 16:19:00,
2013-01-05 08:24:00,25.6,5.6,30.37,ENE,78,0.0,0.0,42,0.00,CLR,,0.00,WeatherDisplay:10.37,2013-01-05 16:24:00,
2013-01-05 08:29:00,26.4,5.8,30.37,ENE,78,0.0,0.0,41,0.00,CLR,,0.00,WeatherDisplay:10.37,2013-01-05 16:29:00,
2013-01-05 08:34:00,27.3,7.2,30.37,ENE,78,0.0,0.0,42,0.00,CLR,,0.00,WeatherDisplay:10.37,2013-01-05 16:34:00,
2013-01-05 08:39:00,28.1,7.4,30.36,ENE,78,0.0,0.0,41,0.00,CLR,,0.00,WeatherDisplay:10.37,2013-01-05 16:39:00,
2013-01-05 08:44:00,28.8,6.9,30.36,ENE,78,0.0,0.0,39,0.00,CLR,,0.00,WeatherDisplay:10.37,2013-01-05 16:44:00,
2013-01-05 08:49:00,29.6,7.1,30.37,ENE,78,0.0,0.0,38,0.00,CLR,,0.00,WeatherDisplay:10.37,2013-01-05 16:49:00,
2013-01-05 08:54:00,30.4,7.2,30.36,ENE,78,0.0,0.0,37,0.00,CLR,,0.00,WeatherDisplay:10.37,2013-01-05 16:54:00,
2013-01-05 08:59:00,31.2,7.9,30.36,ENE,78,0.0,0.0,37,0.00,CLR,,0.00,WeatherDisplay:10.37,2013-01-05 16:59:00,
2013-01-05 09:04:00,32.6,8.6,30.36,ENE,78,0.0,0.0,36,0.00,CLR,,0.00,WeatherDisplay:10.37,2013-01-05 17:04:00,
2013-01-05 09:09:00,34.2,9.4,30.36,ENE,78,0.0,0.0,35,0.00,CLR,,0.00,WeatherDisplay:10.37,2013-01-05 17:09:00,
2013-01-05 09:14:00,34.4,8.9,30.36,ENE,78,1.1,1.1,34,0.00,CLR,,0.00,WeatherDisplay:10.37,2013-01-05 17:14:00,
2013-01-05 09:19:00,34.4,8.9,30.36,ENE,78,1.1,1.1,34,0.00,CLR,,0.00,WeatherDisplay:10.37,2013-01-05 17:19:00,
2013-01-05 09:24:00,34.4,8.9,30.36,ENE,78,1.1,1.1,34,0.00,CLR,,0.00,WeatherDisplay:10.37,2013-01-05 17:24:00,
2013-01-05 09:29:00,35.1,9.5,30.36,ENE,78,0.0,0.0,34,0.00,CLR,,0.00,WeatherDisplay:10.37,2013-01-05 17:29:00,
2013-01-05 09:34:00,36.1,9.0,30.36,ENE,78,0.0,0.0,32,0.00,CLR,,0.00,WeatherDisplay:10.37,2013-01-05 17:34:00,
2013-01-05 09:39:00,36.2,9.1,30.36,ENE,78,3.5,3.5,32,0.00,CLR,,0.00,WeatherDisplay:10.37,2013-01-05 17:39:00,
2013-01-05 09:44:00,36.3,9.2,30.36,ENE,78,0.0,0.0,32,0.00,CLR,,0.00,WeatherDisplay:10.37,2013-01-05 17:44:00,
2013-01-05 09:49:00,36.8,9.7,30.36,ENE,78,0.0,0.0,32,0.00,CLR,,0.00,WeatherDisplay:10.37,2013-01-05 17:49:00,
2013-01-05 09:54:00,37.0,9.8,30.36,ENE,78,0.0,0.0,32,0.00,CLR,,0.00,WeatherDisplay:10.37,2013-01-05 17:54:00,
2013-01-05 09:59:00,37.5,10.3,30.36,ENE,78,0.0,0.0,32,0.00,CLR,,0.00,WeatherDisplay:10.37,2013-01-05 17:59:00,
2013-01-05 10:04:00,38.1,10.1,30.35,ENE,78,0.0,0.0,31,0.00,CLR,,0.00,WeatherDisplay:10.37,2013-01-05 18:04:00,
2013-01-05 10:09:00,39.5,10.6,30.35,ENE,78,0.0,0.0,30,0.00,CLR,,0.00,WeatherDisplay:10.37,2013-01-05 18:09:00,
2013-01-05 10:14:00,39.4,10.5,30.35,ENE,78,0.0,0.0,30,0.00,CLR,,0.00,WeatherDisplay:10.37,2013-01-05 18:14:00,
2013-01-05 10:19:00,39.7,10.7,30.34,ENE,78,0.0,0.0,30,0.00,CLR,,0.00,WeatherDisplay:10.37,2013-01-05 18:19:00,
2013-01-05 10:24:00,39.9,10.2,30.33,ENE,78,0.0,0.0,29,0.00,CLR,,0.00,WeatherDisplay:10.37,2013-01-05 18:24:00,
2013-01-05 10:29:00,40.8,10.9,30.33,ENE,78,0.0,0.0,29,0.00,CLR,,0.00,WeatherDisplay:10.37,2013-01-05 18:29:00,
2013-01-05 10:34:00,41.9,11.9,30.32,ENE,78,0.0,0.0,29,0.00,CLR,,0.00,WeatherDisplay:10.37,2013-01-05 18:34:00,
2013-01-05 10:39:00,42.6,11.7,30.32,ENE,78,0.0,0.0,28,0.00,CLR,,0.00,WeatherDisplay:10.37,2013-01-05 18:39:00,
2013-01-05 10:44:00,42.8,11.9,30.32,ENE,78,0.0,0.0,28,0.00,CLR,,0.00,WeatherDisplay:10.37,2013-01-05 18:44:00,
2013-01-05 10:49:00,43.0,12.1,30.32,ENE,78,0.0,0.0,28,0.00,CLR,,0.00,WeatherDisplay:10.37,2013-01-05 18:49:00,
2013-01-05 10:54:00,43.6,11.8,30.31,ENE,78,0.0,0.0,27,0.00,CLR,,0.00,WeatherDisplay:10.37,2013-01-05 18:54:00,
2013-01-05 10:59:00,43.6,11.8,30.31,ENE,78,0.0,0.0,27,0.00,CLR,,0.00,WeatherDisplay:10.37,2013-01-05 18:59:00,
2013-01-05 11:04:00,44.3,12.4,30.31,ENE,78,0.0,0.0,27,0.00,CLR,,0.00,WeatherDisplay:10.37,2013-01-05 19:04:00,
2013-01-05 11:09:00,44.7,12.7,30.30,ENE,78,2.3,2.3,27,0.00,CLR,,0.00,WeatherDisplay:10.37,2013-01-05 19:09:00,
2013-01-05 11:14:00,45.0,13.0,30.30,ENE,78,0.0,0.0,27,0.00,CLR,,0.00,WeatherDisplay:10.37,2013-01-05 19:14:00,
2013-01-05 11:19:00,45.9,12.9,30.30,East,79,3.5,3.5,26,0.00,CLR,,0.00,WeatherDisplay:10.37,2013-01-05 19:19:00,
2013-01-05 11:24:00,46.4,13.3,30.29,East,79,0.0,0.0,26,0.00,CLR,,0.00,WeatherDisplay:10.37,2013-01-05 19:24:00,
2013-01-05 11:29:00,46.6,13.5,30.28,East,79,0.0,0.0,26,0.00,CLR,,0.00,WeatherDisplay:10.37,2013-01-05 19:29:00,
2013-01-05 11:34:00,47.3,14.1,30.28,East,79,0.0,0.0,26,0.00,CLR,,0.00,WeatherDisplay:10.37,2013-01-05 19:34:00,
2013-01-05 11:39:00,47.3,13.2,30.27,East,79,0.0,0.0,25,0.00,CLR,,0.00,WeatherDisplay:10.37,2013-01-05 19:39:00,
2013-01-05 11:44:00,47.4,13.3,30.27,East,79,0.0,0.0,25,0.00,CLR,,0.00,WeatherDisplay:10.37,2013-01-05 19:44:00,
2013-01-05 11:49:00,47.8,13.6,30.26,East,79,3.5,3.5,25,0.00,CLR,,0.00,WeatherDisplay:10.37,2013-01-05 19:49:00,
2013-01-05 11:54:00,47.9,13.7,30.26,East,79,1.1,0.0,25,0.00,CLR,,0.00,WeatherDisplay:10.37,2013-01-05 19:54:00,
2013-01-05 11:59:00,48.4,13.2,30.25,East,79,4.0,4.0,24,0.00,CLR,,0.00,WeatherDisplay:10.37,2013-01-05 19:59:00,
2013-01-05 12:04:00,48.5,13.3,30.26,East,79,3.5,3.5,24,0.00,CLR,,0.00,WeatherDisplay:10.37,2013-01-05 20:04:00,
2013-01-05 12:09:00,48.8,13.5,30.25,East,79,3.0,3.0,24,0.00,CLR,,0.00,WeatherDisplay:10.37,2013-01-05 20:09:00,
2013-01-05 12:14:00,49.2,12.9,30.25,East,79,3.5,3.5,23,0.00,CLR,,0.00,WeatherDisplay:10.37,2013-01-05 20:14:00,
2013-01-05 12:19:00,49.3,13.0,30.25,ENE,74,0.0,0.0,23,0.00,CLR,,0.00,WeatherDisplay:10.37,2013-01-05 20:19:00,
2013-01-05 12:24:00,49.9,13.5,30.24,ENE,74,0.0,0.0,23,0.00,CLR,,0.00,WeatherDisplay:10.37,2013-01-05 20:24:00,
2013-01-05 12:29:00,49.5,13.2,30.24,ENE,74,1.1,0.0,23,0.00,CLR,,0.00,WeatherDisplay:10.37,2013-01-05 20:29:00,
2013-01-05 12:34:00,49.9,13.5,30.24,ENE,74,0.0,0.0,23,0.00,CLR,,0.00,WeatherDisplay:10.37,2013-01-05 20:34:00,
2013-01-05 12:39:00,50.2,13.8,30.23,ENE,73,0.0,0.0,23,0.00,CLR,,0.00,WeatherDisplay:10.37,2013-01-05 20:39:00,
2013-01-05 12:44:00,50.6,14.1,30.23,ENE,73,0.0,0.0,23,0.00,CLR,,0.00,WeatherDisplay:10.37,2013-01-05 20:44:00,
2013-01-05 12:49:00,51.1,13.5,30.23,ENE,74,2.3,2.3,22,0.00,CLR,,0.00,WeatherDisplay:10.37,2013-01-05 20:49:00,
2013-01-05 12:54:00,50.7,13.2,30.22,ENE,74,0.0,0.0,22,0.00,CLR,,0.00,WeatherDisplay:10.37,2013-01-05 20:54:00,
2013-01-05 12:59:00,51.3,13.7,30.22,ENE,74,3.5,3.5,22,0.00,CLR,,0.00,WeatherDisplay:10.37,2013-01-05 20:59:00,
2013-01-05 13:04:00,51.1,13.5,30.22,East,84,0.0,0.0,22,0.00,CLR,,0.00,WeatherDisplay:10.37,2013-01-05 21:04:00,
2013-01-05 13:09:00,51.7,14.0,30.21,East,84,0.0,0.0,22,0.00,CLR,,0.00,WeatherDisplay:10.37,2013-01-05 21:09:00,
2013-01-05 13:14:00,51.9,13.1,30.21,East,84,4.6,4.6,21,0.00,CLR,,0.00,WeatherDisplay:10.37,2013-01-05 21:14:00,
2013-01-05 13:19:00,52.3,13.5,30.21,East,84,0.0,0.0,21,0.00,CLR,,0.00,WeatherDisplay:10.37,2013-01-05 21:19:00,
2013-01-05 13:24:00,52.3,13.5,30.21,East,85,6.0,6.0,21,0.00,CLR,,0.00,WeatherDisplay:10.37,2013-01-05 21:24:00,
2013-01-05 13:29:00,51.9,13.1,30.21,East,86,2.3,2.3,21,0.00,CLR,,0.00,WeatherDisplay:10.37,2013-01-05 21:29:00,
2013-01-05 13:34:00,52.4,13.5,30.21,East,86,4.0,4.0,21,0.00,CLR,,0.00,WeatherDisplay:10.37,2013-01-05 21:34:00,
2013-01-05 13:39:00,52.5,13.6,30.20,East,86,3.0,3.0,21,0.00,CLR,,0.00,WeatherDisplay:10.37,2013-01-05 21:39:00,
2013-01-05 13:44:00,52.3,13.5,30.20,East,86,0.0,0.0,21,0.00,CLR,,0.00,WeatherDisplay:10.37,2013-01-05 21:44:00,
2013-01-05 13:49:00,52.5,13.6,30.20,East,86,3.5,3.5,21,0.00,CLR,,0.00,WeatherDisplay:10.37,2013-01-05 21:49:00,
2013-01-05 13:54:00,52.6,13.7,30.19,East,86,5.0,5.0,21,0.00,CLR,,0.00,WeatherDisplay:10.37,2013-01-05 21:54:00,
2013-01-05 13:59:00,52.3,13.5,30.19,East,87,3.5,3.5,21,0.00,CLR,,0.00,WeatherDisplay:10.37,2013-01-05 21:59:00,
2013-01-05 14:04:00,52.3,13.5,30.19,East,87,4.6,4.6,21,0.00,CLR,,0.00,WeatherDisplay:10.37,2013-01-05 22:04:00,
2013-01-05 14:09:00,52.5,13.6,30.19,ESE,120,5.8,5.8,21,0.00,CLR,,0.00,WeatherDisplay:10.37,2013-01-05 22:09:00,
2013-01-05 14:14:00,52.8,13.9,30.19,ESE,120,4.6,4.6,21,0.00,CLR,,0.00,WeatherDisplay:10.37,2013-01-05 22:14:00,
2013-01-05 14:19:00,52.6,13.7,30.19,SE,130,3.5,3.5,21,0.00,CLR,,0.00,WeatherDisplay:10.37,2013-01-05 22:19:00,
2013-01-05 14:24:00,53.0,14.0,30.19,SE,130,5.8,5.8,21,0.00,CLR,,0.00,WeatherDisplay:10.37,2013-01-05 22:24:00,
2013-01-05 14:29:00,53.1,14.1,30.19,SE,131,3.5,3.5,21,0.00,CLR,,0.00,WeatherDisplay:10.37,2013-01-05 22:29:00,
2013-01-05 14:34:00,53.0,14.0,30.19,SE,131,4.6,4.6,21,0.00,CLR,,0.00,WeatherDisplay:10.37,2013-01-05 22:34:00,
2013-01-05 14:39:00,52.9,14.0,30.19,SE,131,3.5,3.5,21,0.00,CLR,,0.00,WeatherDisplay:10.37,2013-01-05 22:39:00,
2013-01-05 14:44:00,52.9,14.0,30.19,SE,131,3.5,3.5,21,0.00,CLR,,0.00,WeatherDisplay:10.37,2013-01-05 22:44:00,
2013-01-05 14:49:00,53.1,14.1,30.18,SE,130,0.0,0.0,21,0.00,CLR,,0.00,WeatherDisplay:10.37,2013-01-05 22:49:00,
2013-01-05 14:54:00,53.2,14.2,30.18,SE,130,0.0,0.0,21,0.00,CLR,,0.00,WeatherDisplay:10.37,2013-01-05 22:54:00,
2013-01-05 14:59:00,53.7,14.6,30.18,SE,130,0.0,0.0,21,0.00,CLR,,0.00,WeatherDisplay:10.37,2013-01-05 22:59:00,
2013-01-05 15:04:00,54.1,15.0,30.18,SE,131,0.0,0.0,21,0.00,CLR,,0.00,WeatherDisplay:10.37,2013-01-05 23:04:00,
2013-01-05 15:09:00,53.7,13.5,30.18,SE,130,3.5,3.5,20,0.00,CLR,,0.00,WeatherDisplay:10.37,2013-01-05 23:09:00,
2013-01-05 15:14:00,53.5,14.5,30.18,SE,131,3.5,3.5,21,0.00,CLR,,0.00,WeatherDisplay:10.37,2013-01-05 23:14:00,
2013-01-05 15:19:00,53.3,14.3,30.18,SE,131,3.5,3.5,21,0.00,CLR,,0.00,WeatherDisplay:10.37,2013-01-05 23:19:00,
2013-01-05 15:24:00,53.1,14.1,30.18,SE,131,2.3,2.3,21,0.00,CLR,,0.00,WeatherDisplay:10.37,2013-01-05 23:24:00,
2013-01-05 15:29:00,53.2,13.1,30.18,SE,130,3.0,3.0,20,0.00,CLR,,0.00,WeatherDisplay:10.37,2013-01-05 23:29:00,
2013-01-05 15:34:00,53.1,14.1,30.18,SE,130,4.0,4.0,21,0.00,CLR,,0.00,WeatherDisplay:10.37,2013-01-05 23:34:00,
2013-01-05 15:39:00,53.0,12.9,30.17,SE,131,4.6,4.6,20,0.00,CLR,,0.00,WeatherDisplay:10.37,2013-01-05 23:39:00,
2013-01-05 15:44:00,53.1,13.0,30.17,SE,131,0.0,0.0,20,0.00,CLR,,0.00,WeatherDisplay:10.37,2013-01-05 23:44:00,
2013-01-05 15:49:00,53.3,13.2,30.17,SE,131,3.5,3.5,20,0.00,CLR,,0.00,WeatherDisplay:10.37,2013-01-05 23:49:00,
2013-01-05 15:54:00,53.3,13.2,30.17,SE,130,3.5,3.5,20,0.00,CLR,,0.00,WeatherDisplay:10.37,2013-01-05 23:54:00,
2013-01-05 15:59:00,53.2,13.1,30.17,SE,131,4.6,4.6,20,0.00,CLR,,0.00,WeatherDisplay:10.37,2013-01-05 23:59:00,
2013-01-05 16:04:00,52.9,12.9,30.18,SE,130,3.5,3.5,20,0.00,CLR,,0.00,WeatherDisplay:10.37,2013-01-06 00:04:00,
2013-01-05 16:09:00,52.6,12.6,30.18,SE,130,4.0,4.0,20,0.00,CLR,,0.00,WeatherDisplay:10.37,2013-01-06 00:09:00,
2013-01-05 16:14:00,52.3,12.4,30.18,SE,131,4.6,4.6,20,0.00,CLR,,0.00,WeatherDisplay:10.37,2013-01-06 00:14:00,
2013-01-05 16:19:00,52.0,12.1,30.18,SE,131,4.0,4.0,20,0.00,CLR,,0.00,WeatherDisplay:10.37,2013-01-06 00:19:00,
2013-01-05 16:24:00,51.8,11.9,30.18,SE,130,2.3,2.3,20,0.00,CLR,,0.00,WeatherDisplay:10.37,2013-01-06 00:24:00,
2013-01-05 16:29:00,51.6,11.8,30.18,SE,131,2.3,2.3,20,0.00,CLR,,0.00,WeatherDisplay:10.37,2013-01-06 00:29:00,
2013-01-05 16:34:00,51.4,12.7,30.18,SE,131,0.0,0.0,21,0.00,CLR,,0.00,WeatherDisplay:10.37,2013-01-06 00:34:00,
2013-01-05 16:39:00,51.2,12.5,30.18,SE,131,1.1,1.1,21,0.00,CLR,,0.00,WeatherDisplay:10.37,2013-01-06 00:39:00,
2013-01-05 16:44:00,50.9,11.2,30.18,SE,131,0.0,0.0,20,0.00,CLR,,0.00,WeatherDisplay:10.37,2013-01-06 00:44:00,
2013-01-05 16:49:00,50.7,11.0,30.18,SE,131,0.0,0.0,20,0.00,CLR,,0.00,WeatherDisplay:10.37,2013-01-06 00:49:00,
2013-01-05 16:54:00,50.4,11.9,30.18,SE,131,0.0,0.0,21,0.00,CLR,,0.00,WeatherDisplay:10.37,2013-01-06 00:54:00,
2013-01-05 16:59:00,50.0,11.5,30.18,SE,131,0.0,0.0,21,0.00,CLR,,0.00,WeatherDisplay:10.37,2013-01-06 00:59:00,
2013-01-05 17:04:00,49.3,10.9,30.18,SE,130,0.0,0.0,21,0.00,CLR,,0.00,WeatherDisplay:10.37,2013-01-06 01:04:00,
2013-01-05 17:09:00,48.8,10.5,30.18,SE,130,0.0,0.0,21,0.00,CLR,,0.00,WeatherDisplay:10.37,2013-01-06 01:09:00,
2013-01-05 17:14:00,48.5,10.3,30.18,SE,131,0.0,0.0,21,0.00,CLR,,0.00,WeatherDisplay:10.37,2013-01-06 01:14:00,
2013-01-05 17:19:00,48.3,11.2,30.18,SE,130,0.0,0.0,22,0.00,CLR,,0.00,WeatherDisplay:10.37,2013-01-06 01:19:00,
2013-01-05 17:24:00,48.1,11.0,30.18,SE,131,0.0,0.0,22,0.00,CLR,,0.00,WeatherDisplay:10.37,2013-01-06 01:24:00,
2013-01-05 17:29:00,48.1,12.0,30.18,SE,131,0.0,0.0,23,0.00,CLR,,0.00,WeatherDisplay:10.37,2013-01-06 01:29:00,
2013-01-05 17:34:00,48.1,11.0,30.18,SE,131,0.0,0.0,22,0.00,CLR,,0.00,WeatherDisplay:10.37,2013-01-06 01:34:00,
2013-01-05 17:39:00,48.0,10.9,30.18,SE,131,0.0,0.0,22,0.00,CLR,,0.00,WeatherDisplay:10.37,2013-01-06 01:39:00,
2013-01-05 17:44:00,47.8,11.7,30.18,SE,131,0.0,0.0,23,0.00,CLR,,0.00,WeatherDisplay:10.37,2013-01-06 01:44:00,
2013-01-05 17:49:00,47.7,11.6,30.18,SE,131,0.0,0.0,23,0.00,CLR,,0.00,WeatherDisplay:10.37,2013-01-06 01:49:00,
2013-01-05 17:54:00,47.5,11.5,30.18,SE,131,0.0,0.0,23,0.00,CLR,,0.00,WeatherDisplay:10.37,2013-01-06 01:54:00,
2013-01-05 17:59:00,47.3,12.3,30.18,SE,130,0.0,0.0,24,0.00,CLR,,0.00,WeatherDisplay:10.37,2013-01-06 01:59:00,
2013-01-05 18:04:00,47.1,12.1,30.19,SE,131,0.0,0.0,24,0.00,CLR,,0.00,WeatherDisplay:10.37,2013-01-06 02:04:00,
2013-01-05 18:09:00,46.8,11.8,30.19,SE,131,0.0,0.0,24,0.00,CLR,,0.00,WeatherDisplay:10.37,2013-01-06 02:09:00,
2013-01-05 18:14:00,46.5,11.6,30.18,SE,130,0.0,0.0,24,0.00,CLR,,0.00,WeatherDisplay:10.37,2013-01-06 02:14:00,
2013-01-05 18:19:00,46.4,11.5,30.19,SE,130,0.0,0.0,24,0.00,CLR,,0.00,WeatherDisplay:10.37,2013-01-06 02:19:00,
2013-01-05 18:24:00,46.2,11.3,30.19,SE,131,0.0,0.0,24,0.00,CLR,,0.00,WeatherDisplay:10.37,2013-01-06 02:24:00,
2013-01-05 18:29:00,45.7,10.9,30.19,SE,131,0.0,0.0,24,0.00,CLR,,0.00,WeatherDisplay:10.37,2013-01-06 02:29:00,
2013-01-05 18:34:00,45.3,11.5,30.19,SE,131,0.0,0.0,25,0.00,CLR,,0.00,WeatherDisplay:10.37,2013-01-06 02:34:00,
2013-01-05 18:39:00,45.0,11.2,30.18,SE,131,0.0,0.0,25,0.00,CLR,,0.00,WeatherDisplay:10.37,2013-01-06 02:39:00,
2013-01-05 18:44:00,45.0,11.2,30.18,SE,130,0.0,0.0,25,0.00,CLR,,0.00,WeatherDisplay:10.37,2013-01-06 02:44:00,
2013-01-05 18:49:00,44.9,11.1,30.19,SE,131,0.0,0.0,25,0.00,CLR,,0.00,WeatherDisplay:10.37,2013-01-06 02:49:00,
2013-01-05 18:54:00,44.7,11.0,30.19,SE,131,0.0,0.0,25,0.00,CLR,,0.00,WeatherDisplay:10.37,2013-01-06 02:54:00,
2013-01-05 18:59:00,44.4,11.6,30.19,SE,131,0.0,0.0,26,0.00,CLR,,0.00,WeatherDisplay:10.37,2013-01-06 02:59:00,
2013-01-05 19:04:00,44.0,10.4,30.18,SE,131,0.0,0.0,25,0.00,CLR,,0.00,WeatherDisplay:10.37,2013-01-06 03:04:00,
2013-01-05 19:09:00,43.7,10.1,30.18,SE,131,0.0,0.0,25,0.00,CLR,,0.00,WeatherDisplay:10.37,2013-01-06 03:09:00,
2013-01-05 19:14:00,43.3,10.7,30.19,SE,130,0.0,0.0,26,0.00,CLR,,0.00,WeatherDisplay:10.37,2013-01-06 03:14:00,
2013-01-05 19:19:00,42.9,10.3,30.18,SE,130,0.0,0.0,26,0.00,CLR,,0.00,WeatherDisplay:10.37,2013-01-06 03:19:00,
2013-01-05 19:24:00,42.6,10.1,30.18,SE,131,0.0,0.0,26,0.00,CLR,,0.00,WeatherDisplay:10.37,2013-01-06 03:24:00,
2013-01-05 19:29:00,42.5,10.0,30.18,SE,131,0.0,0.0,26,0.00,CLR,,0.00,WeatherDisplay:10.37,2013-01-06 03:29:00,
2013-01-05 19:34:00,42.4,10.7,30.18,SE,130,0.0,0.0,27,0.00,CLR,,0.00,WeatherDisplay:10.37,2013-01-06 03:34:00,
2013-01-05 19:39:00,42.3,10.6,30.18,SE,131,0.0,0.0,27,0.00,CLR,,0.00,WeatherDisplay:10.37,2013-01-06 03:39:00,
2013-01-05 19:44:00,42.2,10.6,30.18,SE,131,0.0,0.0,27,0.00,CLR,,0.00,WeatherDisplay:10.37,2013-01-06 03:44:00,
2013-01-05 19:49:00,42.1,10.5,30.18,SE,130,0.0,0.0,27,0.00,CLR,,0.00,WeatherDisplay:10.37,2013-01-06 03:49:00,
2013-01-05 19:54:00,42.0,10.4,30.18,SE,130,0.0,0.0,27,0.00,CLR,,0.00,WeatherDisplay:10.37,2013-01-06 03:54:00,
2013-01-05 19:59:00,41.9,9.5,30.18,SE,130,3.5,3.5,26,0.00,CLR,,0.00,WeatherDisplay:10.37,2013-01-06 03:59:00,
2013-01-05 20:04:00,41.9,9.5,30.15,SE,131,0.0,0.0,26,0.00,CLR,,0.00,WeatherDisplay:10.37,2013-01-06 04:04:00,
2013-01-05 20:09:00,41.9,10.3,30.15,SE,131,0.0,0.0,27,0.00,CLR,,0.00,WeatherDisplay:10.37,2013-01-06 04:09:00,
2013-01-05 20:14:00,41.8,10.2,30.15,SE,130,0.0,0.0,27,0.00,CLR,,0.00,WeatherDisplay:10.37,2013-01-06 04:14:00,
2013-01-05 20:19:00,41.5,9.9,30.16,SE,131,0.0,0.0,27,0.00,CLR,,0.00,WeatherDisplay:10.37,2013-01-06 04:19:00,
2013-01-05 20:24:00,41.1,9.6,30.16,SE,131,0.0,0.0,27,0.00,CLR,,0.00,WeatherDisplay:10.37,2013-01-06 04:24:00,
2013-01-05 20:29:00,40.7,9.3,30.16,SE,130,0.0,0.0,27,0.00,CLR,,0.00,WeatherDisplay:10.37,2013-01-06 04:29:00,
2013-01-05 20:34:00,40.2,8.8,30.16,SE,130,0.0,0.0,27,0.00,CLR,,0.00,WeatherDisplay:10.37,2013-01-06 04:34:00,
2013-01-05 20:39:00,39.9,9.4,30.16,SE,131,0.0,0.0,28,0.00,CLR,,0.00,WeatherDisplay:10.37,2013-01-06 04:39:00,
2013-01-05 20:44:00,39.2,8.8,30.17,SE,131,0.0,0.0,28,0.00,CLR,,0.00,WeatherDisplay:10.37,2013-01-06 04:44:00,
2013-01-05 20:49:00,38.7,8.3,30.17,SE,131,1.0,0.0,28,0.00,CLR,,0.00,WeatherDisplay:10.37,2013-01-06 04:49:00,
2013-01-05 20:54:00,37.4,7.2,30.17,SE,131,4.6,4.6,28,0.00,CLR,,0.00,WeatherDisplay:10.37,2013-01-06 04:54:00,
2013-01-05 20:59:00,36.4,7.1,30.18,SE,138,4.6,4.6,29,0.00,CLR,,0.00,WeatherDisplay:10.37,2013-01-06 04:59:00,
2013-01-05 21:00:00,36.3,7.0,30.18,SE,137,4.6,4.6,29,0.00,CLR,,0.00,WeatherDisplay:10.37,2013-01-06 05:00:00,
2013-01-05 21:01:00,36.1,6.9,30.16,SE,138,4.6,4.6,29,0.00,CLR,,0.00,WeatherDisplay:10.37,2013-01-06 05:01:00,
2013-01-05 21:03:00,35.9,7.4,30.16,SE,138,3.5,3.5,30,0.00,CLR,,0.00,WeatherDisplay:10.37,2013-01-06 05:03:00,
2013-01-05 21:04:00,35.8,7.3,30.16,SE,137,3.5,3.5,30,0.00,CLR,,0.00,WeatherDisplay:10.37,2013-01-06 05:04:00,
2013-01-05 21:08:00,35.4,7.0,30.16,SE,138,4.6,4.6,30,0.00,CLR,,0.00,WeatherDisplay:10.37,2013-01-06 05:08:00,
2013-01-05 21:13:00,35.0,6.6,30.17,SE,137,3.5,3.5,30,0.00,CLR,,0.00,WeatherDisplay:10.37,2013-01-06 05:13:00,
2013-01-05 21:18:00,35.0,7.4,30.16,SE,138,2.3,2.3,31,0.00,CLR,,0.00,WeatherDisplay:10.37,2013-01-06 05:18:00,
2013-01-05 21:23:00,35.0,7.4,30.16,SE,137,0.0,0.0,31,0.00,CLR,,0.00,WeatherDisplay:10.37,2013-01-06 05:23:00,
2013-01-05 21:28:00,35.0,7.4,30.16,SE,138,0.0,0.0,31,0.00,CLR,,0.00,WeatherDisplay:10.37,2013-01-06 05:28:00,
2013-01-05 21:33:00,35.3,7.6,30.16,SE,138,0.0,0.0,31,0.00,CLR,,0.00,WeatherDisplay:10.37,2013-01-06 05:33:00,
2013-01-05 21:38:00,35.6,8.6,30.16,SE,137,2.3,2.3,32,0.00,CLR,,0.00,WeatherDisplay:10.37,2013-01-06 05:38:00,
2013-01-05 21:43:00,36.0,8.2,30.16,SE,137,1.1,1.1,31,0.00,CLR,,0.00,WeatherDisplay:10.37,2013-01-06 05:43:00,
2013-01-05 21:48:00,36.3,8.5,30.15,SE,138,2.3,2.3,31,0.00,CLR,,0.00,WeatherDisplay:10.37,2013-01-06 05:48:00,
2013-01-05 22:43:00,35.5,8.5,30.13,SE,137,4.6,5.0,32,0.00,CLR,,0.00,WeatherDisplay:10.37,2013-01-06 06:43:00,
2013-01-05 22:48:00,36.0,8.2,30.12,SE,137,0.0,0.0,31,0.00,CLR,,0.00,WeatherDisplay:10.37,2013-01-06 06:48:00,
2013-01-05 22:53:00,35.9,8.2,30.12,SE,137,2.3,2.3,31,0.00,CLR,,0.00,WeatherDisplay:10.37,2013-01-06 06:53:00,
2013-01-05 22:58:00,35.6,7.9,30.12,SE,137,1.1,1.1,31,0.00,CLR,,0.00,WeatherDisplay:10.37,2013-01-06 06:58:00,
2013-01-05 23:03:00,35.2,8.2,30.10,SE,137,2.3,2.3,32,0.00,CLR,,0.00,WeatherDisplay:10.37,2013-01-06 07:03:00,
2013-01-05 23:08:00,34.8,7.9,30.10,SE,137,0.0,0.0,32,0.00,CLR,,0.00,WeatherDisplay:10.37,2013-01-06 07:08:00,
2013-01-05 23:13:00,34.4,7.5,30.10,SE,137,0.0,0.0,32,0.00,CLR,,0.00,WeatherDisplay:10.37,2013-01-06 07:13:00,
2013-01-05 23:18:00,34.4,7.5,30.11,SE,137,0.0,0.0,32,0.00,CLR,,0.00,WeatherDisplay:10.37,2013-01-06 07:18:00,
2013-01-05 23:23:00,34.3,8.1,30.11,SE,137,3.0,3.0,33,0.00,CLR,,0.00,WeatherDisplay:10.37,2013-01-06 07:23:00,
2013-01-05 23:28:00,34.0,7.9,30.11,SE,137,0.0,0.0,33,0.00,CLR,,0.00,WeatherDisplay:10.37,2013-01-06 07:28:00,
2013-01-05 23:33:00,33.9,7.8,30.11,SE,137,0.0,0.0,33,0.00,CLR,,0.00,WeatherDisplay:10.37,2013-01-06 07:33:00,
2013-01-05 23:38:00,33.8,8.4,30.10,SE,137,2.3,2.3,34,0.00,CLR,,0.00,WeatherDisplay:10.37,2013-01-06 07:38:00,
2013-01-05 23:43:00,33.9,7.8,30.10,SE,137,1.1,0.0,33,0.00,CLR,,0.00,WeatherDisplay:10.37,2013-01-06 07:43:00,
2013-01-05 23:48:00,33.8,7.0,30.10,SE,137,2.3,2.3,32,0.00,CLR,,0.00,WeatherDisplay:10.37,2013-01-06 07:48:00,
2013-01-05 23:53:00,33.8,7.0,30.10,SE,137,0.0,0.0,32,0.00,CLR,,0.00,WeatherDisplay:10.37,2013-01-06 07:53:00,
2013-01-05 23:58:00,33.7,6.9,30.10,SE,137,0.0,0.0,32,0.00,CLR,,0.00,WeatherDisplay:10.37,2013-01-06 07:58:00,